Language selection

My Weather Profile Weather Topics  | 

Trois-Rivières to Donnacona: Past 24 Hour Conditions

 

West Bay of Fundy - 44490

08:00 PM ADT 17 October 2021Buoy position: 44.66N 66.37W
Disclaimer

This table is a summary of hourly weather conditions for the past 24 hours.
Please note that these observations might not always be representative of weather conditions over their associated marine area.

Date / Time
(ADT)
Wind(knots) Wave height(m) Wave period(s) Pressure(kPa) Air tempC) Water tempC)
17 October 2021
20:00 WNW 10 gust 12 1.2 5.7 100.0 14 13
19:00 NW 11 gust 13 1.4 6.0 100.0 14 13
18:00 NW 10 gust 12 1.3 6.3 99.9 14 14
17:00 WSW 8 gust 10 1.2 6.7 99.9 14 14
16:00 WSW 11 gust 14 1.4 7.4 100.0 14 14
15:00 W 10 gust 13 1.2 7.2 99.9 14 13
14:00 SW 9 gust 11 1.2 6.6 99.9 14 13
13:00 SW 12 gust 15 1.6 6.3 100.0 14 13
12:00 SSW 19 gust 24 2.0 6.1 100.0 15 14
11:00 SSE 20 gust 25 1.7 5.5 100.0 16 14
10:00 SE 22 gust 26 1.6 5.4 100.1 16 13
9:00 SE 20 gust 25 1.6 5.5 100.2 16 13
8:00 SE 21 gust 25 1.6 5.5 100.2 16 13
7:00 SE 22 gust 26 1.7 5.6 100.3 16 13
6:00 SE 19 gust 22 1.7 5.4 100.4 15 13
5:00 SE 19 gust 22 1.5 5.7 100.5 15 13
4:00 SE 15 gust 18 1.4 5.9 100.6 15 13
3:00 SE 16 gust 19 1.2 5.7 100.7 15 13
2:00 SSE 17 gust 21 1.3 5.8 100.8 15 13
1:00 SSE 17 gust 21 1.4 6.1 100.9 15 13
0:00 S 18 gust 22 1.3 5.4 100.9 15 13
16 October 2021
23:00 SSE 17 gust 20 1.3 5.1 100.9 15 14
22:00 SSE 18 gust 21 1.1 4.2 100.9 15 14
21:00 SSE 19 gust 22 1.1 4.1 101.0 15 14
20:00 SE 17 gust 19 1.1 4.0 101.0 15 13

Zoom-in to make a selection

Map of St. Lawrence - St. Lawrence River marine weather areas West Bay of Fundy - 44490 Mont-Louis - 45138 Lake Nipissing - 45152 North Bay Airport Beauport Deschambault Île d'Orléans L'Assomption Trois-Rivières Airport Île aux-Grues Lac Saint-Pierre Montréal-Trudeau Int'l Airport Saint-Hubert Airport Lac Memphrémagog Sainte-Anne-de-Bellevue Saint-Anicet Baie-Comeau Airport Cap-Rouge Île Rouge Pointe de l'Islet Pointe Claveau Sept-Îles Airport Pointe-des-Monts Pointe-Noire Cap-d'Espoir Rivière-la-Madeleine Gaspé Airport La Pocatière Mont-Joli Airport New Carlisle Pointe-au-Père Port Menier Île Bicquette Cap-Chat CFB Bagotville Jonquière Mistook Normandin Roberval Airport Bas Caraquet Bathurst Airport Bouctouche AAFC Charlo Miramichi Fundy Park (Alma) Grand Manan Kouchibouguac Miscou Island Greater Moncton Roméo LeBlanc Int'l Airport Point Lepreau Saint John Airport St. Stephen Brier Island Yarmouth Airport North Cape
Legend:
buoy Buoy
land station Land Station

St. Lawrence - St. Lawrence River Area

Another Region

What we are doing

Date modified: